• Join FlightAware (Why Join?)
  • Login
  • US Flag 
11:06AM EDT


 

Airport Tracker/Info


-or-


 

Live Flight TrackerFlight Track Log ✈ RLI811 ✈ 10-Jul-2013 ✈ KBDL - KLEW

Flight Track Log - Related Links

Times and Time Zones

All times are in EDT time to prevent confusion due to time zone crossing. See the RLI811 flight status page for this flight to view local times or setup timezone preferences in your user account.

Time Position Orientation Groundspeed Altitude Reporting Facility
EDT Latitude Longitude Course Direction KTS MPH feet Rate Location/Type
12:00PM 43.1704 -71.3096 39° Northeast  Level Estimated
12:01PM 43.1580 -71.3790 256° West  Level FlightAware Approximate
12:02PM 43.1971 -71.3318 38° Northeast  Level Estimated
12:03PM 43.2479 -71.3157 13° North  Level FlightAware Approximate
12:04PM 43.2986 -71.2996 13° North  Level FlightAware Approximate
12:05PM 43.3494 -71.2835 13° North  Level FlightAware Approximate
12:06PM 43.4001 -71.2674 13° North  Level FlightAware Approximate
12:07PM 43.3674 -71.2544 50° Northeast  Level FlightAware Approximate
12:08PM 43.4006 -71.1992 50° Northeast  Level FlightAware Approximate
12:09PM 43.4338 -71.1440 50° Northeast  Level FlightAware Approximate
12:10PM 43.4669 -71.0886 50° Northeast  Level FlightAware Approximate
12:11PM 43.5001 -71.0332 46° Northeast  Level FlightAware Approximate
12:12PM 43.5361 -70.9814 46° Northeast  Level FlightAware Approximate
12:13PM 43.5721 -70.9294 46° Northeast  Level FlightAware Approximate
12:14PM 43.6081 -70.8774 46° Northeast  Level FlightAware Approximate
12:15PM 43.6440 -70.8254 46° Northeast  Level FlightAware Approximate
12:16PM 43.6802 -70.7736 46° Northeast  Level FlightAware Approximate
12:17PM 43.7164 -70.7219 46° Northeast  Level FlightAware Approximate
12:18PM 43.7527 -70.6701 46° Northeast  Level FlightAware Approximate
12:19PM 43.7897 -70.6193 44° Northeast  Level FlightAware Approximate
12:20PM 43.8272 -70.5693 44° Northeast  Level FlightAware Approximate
12:21PM 43.8648 -70.5193 44° Northeast  Level FlightAware Approximate
12:22PM 43.9023 -70.4692 44° Northeast  Level FlightAware Approximate
12:23PM 43.9393 -70.4183 45° Northeast  Level FlightAware Approximate
12:24PM 43.9760 -70.3670 45° Northeast  Level FlightAware Approximate
12:25PM 44.0122 -70.3150 47° Northeast  Level FlightAware Approximate
12:26PM 44.0333 -70.2833 47° Northeast  Level FlightAware Approximate
12:27PM 44.0485 -70.2835 47° Northeast  Level Estimated
12:28PM 44.0485 -70.2835 47° Northeast  Level Estimated
12:29PM 44.0485 -70.2835 47° Northeast  Level Estimated
12:30PM 44.0485 -70.2835 47° Northeast  Level Estimated
12:31PM 44.0485 -70.2835 47° Northeast  Level Estimated
12:32PM 44.0485 -70.2835 47° Northeast  Level Estimated
12:33PM 44.0485 -70.2835 47° Northeast  Level Estimated
12:34PM 44.0485 -70.2835 47° Northeast  Level Estimated
12:35PM 44.0485 -70.2835 47° Northeast  Level Estimated
12:36PM 44.0485 -70.2835 47° Northeast  Level Estimated
12:37PM 44.0485 -70.2835 47° Northeast  Level Estimated
12:38PM 44.0485 -70.2835 47° Northeast  Level Estimated
12:39PM 44.0485 -70.2835 47° Northeast  Level Estimated
12:40PM 44.0485 -70.2835 47° Northeast  Level Estimated
12:41PM 44.0485 -70.2835 47° Northeast  Level Estimated
12:42PM 44.0485 -70.2835 47° Northeast  Level Estimated
12:43PM 44.0485 -70.2835 47° Northeast  Level Estimated
12:44PM 44.0485 -70.2835 47° Northeast  Level Estimated
12:45PM 44.0485 -70.2835 47° Northeast  Level Estimated
12:46PM 44.0485 -70.2835 47° Northeast  Level Estimated
12:47PM 44.0485 -70.2835 47° Northeast  Level Estimated
12:48PM 44.0485 -70.2835 47° Northeast  Level Estimated
12:49PM 44.0485 -70.2835 47° Northeast  Level Estimated
12:50PM 44.0485 -70.2835 47° Northeast  Level Estimated
12:51PM 44.0485 -70.2835 47° Northeast  Level Estimated
12:52PM 44.0485 -70.2835 47° Northeast  Level Estimated
12:53PM 44.0485 -70.2835 47° Northeast  Level Estimated
12:54PM 44.0485 -70.2835 47° Northeast  Level Estimated
12:55PM 44.0485 -70.2835 47° Northeast  Level Estimated
12:56PM 44.0485 -70.2835 47° Northeast  Level Estimated
12:57PM 44.0485 -70.2835 47° Northeast  Level Estimated
12:58PM 44.0485 -70.2835 47° Northeast  Level Estimated
12:59PM 44.0485 -70.2835 47° Northeast  Level Estimated
01:00PM 44.0485 -70.2835 47° Northeast  Level Estimated
01:01PM 44.0485 -70.2835 47° Northeast  Level Estimated
01:02PM 44.0485 -70.2835 47° Northeast  Level Estimated
01:03PM 44.0485 -70.2835 47° Northeast  Level Estimated